createdAt,value
2023-05-19T00:02:09.554Z,9.30
2023-05-19T00:04:37.808Z,9.20
2023-05-19T00:07:05.771Z,9.10
2023-05-19T00:09:33.176Z,9.10
2023-05-19T00:12:00.715Z,9.00
2023-05-19T00:14:29.236Z,9.10
2023-05-19T00:16:58.095Z,9.20
2023-05-19T00:19:25.699Z,9.20
2023-05-19T00:21:52.729Z,9.20
2023-05-19T00:24:19.731Z,9.20
2023-05-19T00:26:46.767Z,9.20
2023-05-19T00:29:18.557Z,9.20
2023-05-19T00:31:46.736Z,9.20
2023-05-19T00:34:13.820Z,9.10
2023-05-19T00:36:40.991Z,9.10
2023-05-19T00:39:08.126Z,9.00
2023-05-19T00:41:35.683Z,9.00
2023-05-19T00:44:02.740Z,8.90
2023-05-19T00:46:30.914Z,8.80
2023-05-19T00:48:58.015Z,8.80
2023-05-19T00:51:27.655Z,8.80
2023-05-19T00:53:54.746Z,8.80
2023-05-19T00:56:22.898Z,8.80
2023-05-19T00:58:52.039Z,8.70
2023-05-19T01:01:21.709Z,8.80
2023-05-19T01:03:50.079Z,8.80
2023-05-19T01:06:19.286Z,8.90
2023-05-19T01:08:46.734Z,8.90
2023-05-19T01:11:13.812Z,8.90
2023-05-19T01:13:42.212Z,8.90
2023-05-19T01:16:25.077Z,9.00
2023-05-19T01:19:02.395Z,9.10
2023-05-19T01:22:01.181Z,9.10
2023-05-19T01:25:02.636Z,9.00
2023-05-19T01:27:54.183Z,9.00
2023-05-19T01:30:26.486Z,9.00
2023-05-19T01:33:01.485Z,9.00
2023-05-19T01:35:29.516Z,8.90
2023-05-19T01:38:00.344Z,9.00
2023-05-19T01:40:28.584Z,9.10
2023-05-19T01:42:58.359Z,9.20
2023-05-19T01:45:28.529Z,9.30
2023-05-19T01:47:59.644Z,9.30
2023-05-19T01:50:27.056Z,9.40
2023-05-19T01:52:55.046Z,9.40
2023-05-19T01:55:25.764Z,9.30
2023-05-19T01:58:00.558Z,9.20
2023-05-19T02:00:52.051Z,9.10
2023-05-19T02:03:56.714Z,9.10
2023-05-19T02:06:26.817Z,9.00
2023-05-19T02:09:05.329Z,9.00
2023-05-19T02:12:10.765Z,9.00
2023-05-19T02:14:50.205Z,9.10
2023-05-19T02:17:18.681Z,9.20
2023-05-19T02:19:46.782Z,9.20
2023-05-19T02:22:15.025Z,9.20
2023-05-19T02:24:42.056Z,9.20
2023-05-19T02:27:09.115Z,9.20
2023-05-19T02:29:36.591Z,9.20
2023-05-19T02:32:03.836Z,9.20
2023-05-19T02:34:30.845Z,9.30
2023-05-19T02:36:57.981Z,9.20
2023-05-19T02:39:25.072Z,9.20
2023-05-19T02:41:52.118Z,9.20
2023-05-19T02:44:19.290Z,9.20
2023-05-19T02:46:46.375Z,9.30
2023-05-19T02:49:13.398Z,9.30
2023-05-19T02:51:40.502Z,9.30
2023-05-19T02:58:33.702Z,9.20
2023-05-19T03:01:01.136Z,9.20
2023-05-19T03:03:28.822Z,9.10
2023-05-19T03:05:56.041Z,8.90
2023-05-19T03:08:23.092Z,8.70
2023-05-19T03:10:50.148Z,8.50
2023-05-19T03:13:17.305Z,8.20
2023-05-19T03:15:45.164Z,8.00
2023-05-19T03:18:12.836Z,7.80
2023-05-19T03:20:42.538Z,7.70
2023-05-19T03:23:09.587Z,7.60
2023-05-19T03:25:36.858Z,7.50
2023-05-19T03:28:04.851Z,7.50
2023-05-19T03:30:32.582Z,7.40
2023-05-19T03:33:11.837Z,7.40
2023-05-19T03:35:39.625Z,7.40
2023-05-19T03:38:06.950Z,7.30
2023-05-19T03:40:34.194Z,7.30
2023-05-19T03:43:05.647Z,7.20
2023-05-19T03:45:37.290Z,7.10
2023-05-19T03:48:19.742Z,7.10
2023-05-19T03:51:11.579Z,7.10
2023-05-19T03:53:39.473Z,7.10
2023-05-19T03:56:07.731Z,7.10
2023-05-19T03:58:37.114Z,7.10
2023-05-19T04:01:04.138Z,7.20
2023-05-19T04:03:31.272Z,7.20
2023-05-19T04:05:58.418Z,7.20
2023-05-19T04:08:25.491Z,7.20
2023-05-19T04:10:52.741Z,7.20
2023-05-19T04:13:19.842Z,7.20
2023-05-19T04:15:47.146Z,7.30
2023-05-19T04:18:14.282Z,7.30
2023-05-19T04:20:41.533Z,7.30
2023-05-19T04:23:08.960Z,7.20
2023-05-19T04:25:36.557Z,7.20
2023-05-19T04:28:03.644Z,7.20
2023-05-19T04:30:31.472Z,7.30
2023-05-19T04:33:01.295Z,7.20
2023-05-19T04:35:28.445Z,7.20
2023-05-19T04:37:55.777Z,7.20
2023-05-19T04:40:28.136Z,7.20
2023-05-19T04:42:55.864Z,7.20
2023-05-19T04:45:23.530Z,7.30
2023-05-19T04:47:53.003Z,7.30
2023-05-19T04:50:20.731Z,7.30
2023-05-19T04:52:47.990Z,7.30
2023-05-19T04:55:16.069Z,7.20
2023-05-19T04:57:43.800Z,7.20
2023-05-19T05:00:14.675Z,7.30
2023-05-19T05:03:05.384Z,7.30
2023-05-19T05:05:33.280Z,7.40
2023-05-19T05:08:01.261Z,7.50
2023-05-19T05:10:32.385Z,7.50
2023-05-19T05:13:00.903Z,7.50
2023-05-19T05:15:29.980Z,7.50
2023-05-19T05:17:59.708Z,7.50
2023-05-19T05:20:27.248Z,7.50
2023-05-19T05:22:54.753Z,7.50
2023-05-19T05:25:26.090Z,7.60
2023-05-19T05:27:53.174Z,7.70
2023-05-19T05:30:20.413Z,7.70
2023-05-19T05:32:47.661Z,7.80
2023-05-19T05:35:29.347Z,7.90
2023-05-19T05:37:56.586Z,8.10
2023-05-19T05:40:23.691Z,8.20
2023-05-19T05:42:51.758Z,8.30
2023-05-19T05:45:25.867Z,8.40
2023-05-19T05:47:54.692Z,8.50
2023-05-19T05:50:22.079Z,8.70
2023-05-19T05:52:52.737Z,8.80
2023-05-19T05:55:20.244Z,8.80
2023-05-19T05:57:50.679Z,8.90
2023-05-19T06:00:18.081Z,9.10
2023-05-19T06:02:52.223Z,9.20
2023-05-19T06:05:20.420Z,9.30
2023-05-19T06:07:48.762Z,9.40
2023-05-19T06:10:21.423Z,9.50
2023-05-19T06:12:49.912Z,9.70
2023-05-19T06:15:17.090Z,9.80
2023-05-19T06:18:03.408Z,10.00
2023-05-19T06:20:30.777Z,10.20
2023-05-19T06:22:58.503Z,10.40
2023-05-19T06:25:27.326Z,10.50
2023-05-19T06:27:55.401Z,10.50
2023-05-19T06:30:23.478Z,10.60
2023-05-19T06:33:19.558Z,10.70
2023-05-19T06:35:46.572Z,10.80
2023-05-19T06:38:14.330Z,10.80
2023-05-19T06:40:42.151Z,10.90
2023-05-19T06:43:09.427Z,11.00
2023-05-19T06:45:54.986Z,11.20
2023-05-19T06:48:24.454Z,11.40
2023-05-19T06:50:51.822Z,11.50
2023-05-19T06:53:21.441Z,11.60
2023-05-19T06:55:59.336Z,11.70
2023-05-19T06:58:30.684Z,11.90
2023-05-19T07:02:04.872Z,12.00
2023-05-19T07:04:33.556Z,12.10
2023-05-19T07:07:01.139Z,12.30
2023-05-19T07:09:28.310Z,12.40
2023-05-19T07:11:56.823Z,12.50
2023-05-19T07:14:24.059Z,12.60
2023-05-19T07:16:51.683Z,12.80
2023-05-19T07:19:21.617Z,12.90
2023-05-19T07:21:48.620Z,13.00
2023-05-19T07:24:15.883Z,13.20
2023-05-19T07:26:42.962Z,13.30
2023-05-19T07:29:10.018Z,13.40
2023-05-19T07:31:37.083Z,13.40
2023-05-19T07:34:04.309Z,13.50
2023-05-19T07:36:31.479Z,13.60
2023-05-19T07:38:58.555Z,13.60
2023-05-19T07:41:26.281Z,13.60
2023-05-19T07:43:53.364Z,13.80
2023-05-19T07:46:22.206Z,13.80
2023-05-19T07:48:49.545Z,13.90
2023-05-19T07:51:16.707Z,13.80
2023-05-19T07:53:43.760Z,13.80
2023-05-19T07:56:10.947Z,13.90
2023-05-19T07:58:38.062Z,13.80
2023-05-19T08:01:05.150Z,13.90
2023-05-19T08:03:32.398Z,13.90
2023-05-19T08:05:59.559Z,13.90
2023-05-19T08:08:26.928Z,13.90
2023-05-19T08:10:54.074Z,14.00
2023-05-19T08:13:21.108Z,14.00
2023-05-19T08:15:48.294Z,14.00
2023-05-19T08:18:15.377Z,14.10
2023-05-19T08:20:42.504Z,14.10
2023-05-19T08:23:09.501Z,14.10
2023-05-19T08:25:36.563Z,14.10
2023-05-19T08:28:03.667Z,14.20
2023-05-19T08:30:30.937Z,14.20
2023-05-19T08:32:58.265Z,14.20
2023-05-19T08:35:25.382Z,14.30
2023-05-19T08:37:52.424Z,14.30
2023-05-19T08:40:20.376Z,14.30
2023-05-19T08:42:47.929Z,14.30
2023-05-19T08:45:15.183Z,14.30
2023-05-19T08:47:43.035Z,14.40
2023-05-19T08:50:11.664Z,14.40
2023-05-19T08:52:53.306Z,14.50
2023-05-19T08:55:41.975Z,14.50
2023-05-19T08:58:10.043Z,14.50
2023-05-19T09:00:37.799Z,14.60
2023-05-19T09:03:17.741Z,14.60
2023-05-19T09:05:46.787Z,14.60
2023-05-19T09:08:14.124Z,14.70
2023-05-19T09:10:41.150Z,14.70
2023-05-19T09:13:08.227Z,14.80
2023-05-19T09:15:36.924Z,14.80
2023-05-19T09:18:15.251Z,14.70
2023-05-19T09:20:45.057Z,14.80
2023-05-19T09:23:16.369Z,14.90
2023-05-19T09:25:54.078Z,15.10
2023-05-19T09:28:33.399Z,15.20
2023-05-19T09:31:09.364Z,15.20
2023-05-19T09:33:38.618Z,15.40
2023-05-19T09:36:08.517Z,15.50
2023-05-19T09:38:36.604Z,15.60
2023-05-19T09:41:05.182Z,15.70
2023-05-19T09:43:33.778Z,15.70
2023-05-19T09:46:09.219Z,15.80
2023-05-19T09:48:37.929Z,15.90
2023-05-19T09:51:07.989Z,16.00
2023-05-19T09:53:35.557Z,16.10
2023-05-19T09:56:04.219Z,16.10
2023-05-19T09:58:35.650Z,16.20
2023-05-19T10:01:04.318Z,16.30
2023-05-19T10:03:34.899Z,16.40
2023-05-19T10:06:04.066Z,16.30
2023-05-19T10:08:32.387Z,16.10
2023-05-19T10:11:00.131Z,16.10
2023-05-19T10:13:29.220Z,16.10
2023-05-19T10:15:59.226Z,16.20
2023-05-19T10:18:27.951Z,16.10
2023-05-19T10:20:56.137Z,15.90
2023-05-19T10:23:23.695Z,15.70
2023-05-19T10:25:55.742Z,15.70
2023-05-19T10:28:28.125Z,15.70
2023-05-19T10:30:58.919Z,15.70
2023-05-19T10:33:42.276Z,15.80
2023-05-19T10:36:25.713Z,15.70
2023-05-19T10:39:04.820Z,15.50
2023-05-19T10:41:51.100Z,15.60
2023-05-19T10:45:22.281Z,15.70
2023-05-19T10:47:51.636Z,15.80
2023-05-19T10:50:44.823Z,15.90
2023-05-19T10:53:18.378Z,15.70
2023-05-19T10:55:56.271Z,15.70
2023-05-19T10:58:46.741Z,15.60
2023-05-19T11:01:15.803Z,15.60
2023-05-19T11:03:49.662Z,15.50
2023-05-19T11:06:29.605Z,15.40
2023-05-19T11:09:01.020Z,15.30
2023-05-19T11:11:47.872Z,15.20
2023-05-19T11:14:20.274Z,15.20
2023-05-19T11:16:48.963Z,15.20
2023-05-19T11:19:52.799Z,15.10
2023-05-19T11:22:24.408Z,15.10
2023-05-19T11:24:53.412Z,15.00
2023-05-19T11:27:31.799Z,15.00
2023-05-19T11:30:09.051Z,14.90
2023-05-19T11:32:48.277Z,14.70
2023-05-19T11:35:19.200Z,14.50
2023-05-19T11:37:49.146Z,14.50
2023-05-19T11:40:16.650Z,14.60
2023-05-19T11:42:44.980Z,14.80
2023-05-19T11:45:12.159Z,14.90
2023-05-19T11:47:57.267Z,15.00
2023-05-19T11:50:26.686Z,15.10
2023-05-19T11:52:54.460Z,15.10
2023-05-19T11:55:22.347Z,15.20
2023-05-19T11:58:03.914Z,15.40
2023-05-19T12:00:39.998Z,15.50
2023-05-19T12:03:37.072Z,15.60
2023-05-19T12:06:05.944Z,15.60
2023-05-19T12:08:33.117Z,15.60
2023-05-19T12:11:00.195Z,15.50
2023-05-19T12:13:28.889Z,15.60
2023-05-19T12:16:00.616Z,15.70
2023-05-19T12:18:33.948Z,15.70
2023-05-19T12:21:01.025Z,15.80
2023-05-19T12:23:30.802Z,15.80
2023-05-19T12:30:17.090Z,15.60
2023-05-19T12:32:44.365Z,15.50
2023-05-19T12:35:11.935Z,15.30
2023-05-19T12:37:42.989Z,15.20
2023-05-19T12:40:15.709Z,15.00
2023-05-19T12:42:46.457Z,15.10
2023-05-19T12:45:14.503Z,15.20
2023-05-19T12:47:42.042Z,15.30
2023-05-19T12:50:11.040Z,15.40
2023-05-19T12:52:44.180Z,15.40
2023-05-19T12:55:12.402Z,15.50
2023-05-19T12:57:41.575Z,15.50
2023-05-19T13:00:22.976Z,15.50
2023-05-19T13:03:05.415Z,15.50
2023-05-19T13:05:38.399Z,15.50
2023-05-19T13:08:11.280Z,15.60
2023-05-19T13:10:39.792Z,15.80
2023-05-19T13:13:07.897Z,15.90
2023-05-19T13:15:38.011Z,15.90
2023-05-19T13:18:07.254Z,16.00
2023-05-19T13:20:34.986Z,16.00
2023-05-19T13:23:02.907Z,16.10
2023-05-19T13:25:29.962Z,16.30
2023-05-19T13:27:59.477Z,16.50
2023-05-19T13:30:26.894Z,16.70
2023-05-19T13:32:54.120Z,16.90
2023-05-19T13:35:21.263Z,17.10
2023-05-19T13:37:49.083Z,17.20
2023-05-19T13:40:17.898Z,17.40
2023-05-19T13:42:45.549Z,17.30
2023-05-19T13:45:13.045Z,17.30
2023-05-19T13:48:07.702Z,17.40
2023-05-19T13:50:34.968Z,17.50
2023-05-19T13:53:02.104Z,17.50
2023-05-19T13:55:29.270Z,17.50
2023-05-19T13:57:56.346Z,17.60
2023-05-19T14:00:24.092Z,17.80
2023-05-19T14:02:51.222Z,18.00
2023-05-19T14:05:18.557Z,18.00
2023-05-19T14:07:46.413Z,17.90
2023-05-19T14:10:13.474Z,17.80
2023-05-19T14:13:04.941Z,17.70
2023-05-19T14:15:27.817Z,17.70
2023-05-19T14:17:55.040Z,17.80
2023-05-19T14:20:22.228Z,17.80
2023-05-19T14:22:49.300Z,18.00
2023-05-19T14:25:16.355Z,18.10
2023-05-19T14:27:43.406Z,18.20
2023-05-19T14:30:10.845Z,18.20
2023-05-19T14:32:38.009Z,18.10
2023-05-19T14:35:05.608Z,18.00
2023-05-19T14:37:32.630Z,17.80
2023-05-19T14:39:59.993Z,17.50
2023-05-19T14:42:27.147Z,17.20
2023-05-19T14:44:54.130Z,16.90
2023-05-19T14:47:21.505Z,16.80
2023-05-19T14:49:48.729Z,16.60
2023-05-19T14:52:20.623Z,16.50
2023-05-19T14:54:47.647Z,16.70
2023-05-19T14:57:14.713Z,16.80
2023-05-19T14:59:42.014Z,16.80
2023-05-19T15:02:09.009Z,16.80
2023-05-19T15:04:36.148Z,17.00
2023-05-19T15:07:09.749Z,17.00
2023-05-19T15:09:38.150Z,17.00
2023-05-19T15:12:05.712Z,17.10
2023-05-19T15:14:32.932Z,17.10
2023-05-19T15:17:00.212Z,17.10
2023-05-19T15:19:27.639Z,17.30
2023-05-19T15:21:54.869Z,17.40
2023-05-19T15:24:22.104Z,17.60
2023-05-19T15:26:49.176Z,17.80
2023-05-19T15:29:16.512Z,17.90
2023-05-19T15:31:43.737Z,18.10
2023-05-19T15:34:11.055Z,18.20
2023-05-19T15:36:38.352Z,18.20
2023-05-19T15:39:06.638Z,18.10
2023-05-19T15:41:34.085Z,18.00
2023-05-19T15:44:02.470Z,18.00
2023-05-19T15:46:29.983Z,18.00
2023-05-19T15:48:57.160Z,18.00
2023-05-19T15:51:24.651Z,18.00
2023-05-19T15:53:52.106Z,18.00
2023-05-19T15:56:22.675Z,18.20
2023-05-19T15:58:50.000Z,18.50
2023-05-19T16:01:17.985Z,18.70
2023-05-19T16:03:46.075Z,18.90
2023-05-19T16:06:13.618Z,19.10
2023-05-19T16:08:40.624Z,19.20
2023-05-19T16:11:07.951Z,19.10
2023-05-19T16:13:35.229Z,19.00
2023-05-19T16:16:02.727Z,19.10
2023-05-19T16:18:29.942Z,19.10
2023-05-19T16:20:57.190Z,19.00
2023-05-19T16:23:24.935Z,18.70
2023-05-19T16:25:52.410Z,18.60
2023-05-19T16:28:19.682Z,18.50
2023-05-19T16:30:47.013Z,18.40
2023-05-19T16:33:14.143Z,18.40
2023-05-19T16:35:41.238Z,18.30
2023-05-19T16:38:08.301Z,18.30
2023-05-19T16:40:35.774Z,18.40
2023-05-19T16:43:03.075Z,18.40
2023-05-19T16:45:30.168Z,18.40
2023-05-19T16:47:57.239Z,18.30
2023-05-19T16:50:24.318Z,18.20
2023-05-19T16:52:51.387Z,18.30
2023-05-19T16:55:20.404Z,18.40
2023-05-19T16:57:47.746Z,18.30
2023-05-19T17:00:15.643Z,18.40
2023-05-19T17:02:43.057Z,18.40
2023-05-19T17:05:10.456Z,18.50
2023-05-19T17:07:37.591Z,18.50
2023-05-19T17:10:05.257Z,18.60
2023-05-19T17:12:32.322Z,18.60
2023-05-19T17:14:59.424Z,18.60
2023-05-19T17:17:26.887Z,18.60
2023-05-19T17:19:54.135Z,18.60
2023-05-19T17:22:21.199Z,18.70
2023-05-19T17:24:48.297Z,18.70
2023-05-19T17:27:15.441Z,18.70
2023-05-19T17:29:42.515Z,18.60
2023-05-19T17:32:09.655Z,18.50
2023-05-19T17:34:36.791Z,18.50
2023-05-19T17:37:04.024Z,18.50
2023-05-19T17:39:31.245Z,18.40
2023-05-19T17:41:58.492Z,18.30
2023-05-19T17:44:25.608Z,18.30
2023-05-19T17:46:52.847Z,18.20
2023-05-19T17:49:20.128Z,18.20
2023-05-19T17:51:47.518Z,18.10
2023-05-19T17:54:14.846Z,18.00
2023-05-19T17:56:43.317Z,17.90
2023-05-19T17:59:11.087Z,17.90
2023-05-19T18:01:38.487Z,17.90
2023-05-19T18:04:06.231Z,17.90
2023-05-19T18:06:34.872Z,17.90
2023-05-19T18:10:12.935Z,17.90
2023-05-19T18:12:39.988Z,17.80
2023-05-19T18:15:07.386Z,17.70
2023-05-19T18:17:34.527Z,17.60
2023-05-19T18:20:01.592Z,17.60
2023-05-19T18:22:28.657Z,17.60
2023-05-19T18:24:57.668Z,17.50
2023-05-19T18:27:24.751Z,17.50
2023-05-19T18:29:52.008Z,17.40
2023-05-19T18:32:19.088Z,17.30
2023-05-19T18:34:46.357Z,17.20
2023-05-19T18:37:13.355Z,17.20
2023-05-19T18:39:40.621Z,17.10
2023-05-19T18:42:07.682Z,17.10
2023-05-19T18:44:34.845Z,17.00
2023-05-19T18:47:02.051Z,16.90
2023-05-19T18:49:29.240Z,16.90
2023-05-19T18:51:56.408Z,16.80
2023-05-19T18:54:23.632Z,16.80
2023-05-19T18:56:50.876Z,16.70
2023-05-19T18:59:18.049Z,16.60
2023-05-19T19:01:45.529Z,16.60
2023-05-19T19:04:14.867Z,16.60
2023-05-19T19:06:43.828Z,16.50
2023-05-19T19:09:11.116Z,16.50
2023-05-19T19:11:38.509Z,16.40
2023-05-19T19:14:05.518Z,16.40
2023-05-19T19:16:32.621Z,16.30
2023-05-19T19:18:59.825Z,16.30
2023-05-19T19:21:27.071Z,16.20
2023-05-19T19:23:56.713Z,16.10
2023-05-19T19:26:26.969Z,16.00
2023-05-19T19:28:54.097Z,15.90
2023-05-19T19:31:21.234Z,15.80
2023-05-19T19:33:48.394Z,15.70
2023-05-19T19:36:15.642Z,15.70
2023-05-19T19:38:42.693Z,15.70
2023-05-19T19:41:09.771Z,15.80
2023-05-19T19:43:36.879Z,15.70
2023-05-19T19:46:04.720Z,15.70
2023-05-19T19:48:32.533Z,15.70
2023-05-19T19:50:59.608Z,15.60
2023-05-19T19:53:26.733Z,15.50
2023-05-19T19:56:01.669Z,15.60
2023-05-19T19:58:29.436Z,15.50
2023-05-19T20:01:01.733Z,15.50
2023-05-19T20:03:29.010Z,15.50
2023-05-19T20:05:57.093Z,15.50
2023-05-19T20:08:25.295Z,15.40
2023-05-19T20:10:53.155Z,15.40
2023-05-19T20:13:20.423Z,15.30
2023-05-19T20:15:47.547Z,15.30
2023-05-19T20:18:15.017Z,15.20
2023-05-19T20:20:42.840Z,15.10
2023-05-19T20:23:09.896Z,15.10
2023-05-19T20:25:58.429Z,15.00
2023-05-19T20:28:44.342Z,14.90
2023-05-19T20:31:11.902Z,14.80
2023-05-19T20:34:03.000Z,14.70
2023-05-19T20:36:30.080Z,14.60
2023-05-19T20:38:57.142Z,14.50
2023-05-19T20:41:24.150Z,14.50
2023-05-19T20:43:51.319Z,14.40
2023-05-19T20:46:47.920Z,14.50
2023-05-19T20:49:15.101Z,14.40
2023-05-19T20:51:47.419Z,14.30
2023-05-19T20:54:14.722Z,14.20
2023-05-19T20:56:41.871Z,14.10
2023-05-19T20:59:08.912Z,14.10
2023-05-19T21:01:35.918Z,14.00
2023-05-19T21:04:07.108Z,14.00
2023-05-19T21:06:46.761Z,13.90
2023-05-19T21:09:14.950Z,13.80
2023-05-19T21:11:42.060Z,13.70
2023-05-19T21:14:09.363Z,13.60
2023-05-19T21:16:38.914Z,13.60
2023-05-19T21:19:06.909Z,13.50
2023-05-19T21:21:34.259Z,13.40
2023-05-19T21:24:01.283Z,13.30
2023-05-19T21:26:28.304Z,13.30
2023-05-19T21:28:55.821Z,13.20
2023-05-19T21:31:23.085Z,13.20
2023-05-19T21:33:50.300Z,13.20
2023-05-19T21:36:17.364Z,13.20
2023-05-19T21:38:44.420Z,13.20
2023-05-19T21:41:11.542Z,13.20
2023-05-19T21:43:39.467Z,13.20
2023-05-19T21:46:07.932Z,13.20
2023-05-19T21:48:35.174Z,13.30
2023-05-19T21:51:02.286Z,13.20
2023-05-19T21:53:29.439Z,13.10
2023-05-19T21:56:01.813Z,13.10
2023-05-19T21:58:29.995Z,13.10
2023-05-19T22:00:57.639Z,13.10
2023-05-19T22:03:24.857Z,13.10
2023-05-19T22:05:53.531Z,13.10
2023-05-19T22:08:36.899Z,13.00
2023-05-19T22:11:04.206Z,12.90
2023-05-19T22:13:32.045Z,12.90
2023-05-19T22:15:59.193Z,12.80
2023-05-19T22:18:26.271Z,12.60
2023-05-19T22:20:53.300Z,12.40
2023-05-19T22:23:20.629Z,12.30
2023-05-19T22:25:47.630Z,12.20
2023-05-19T22:28:14.729Z,12.10
2023-05-19T22:31:51.727Z,12.10
2023-05-19T22:34:19.315Z,12.10
2023-05-19T22:36:46.421Z,12.10
2023-05-19T22:39:13.479Z,12.10
2023-05-19T22:41:40.880Z,12.10
2023-05-19T22:44:10.433Z,12.10
2023-05-19T22:46:37.456Z,12.00
2023-05-19T22:49:04.679Z,12.10
2023-05-19T22:51:32.194Z,12.10
2023-05-19T22:53:59.342Z,12.00
2023-05-19T22:56:26.356Z,11.90
2023-05-19T22:58:53.473Z,11.80
2023-05-19T23:01:20.846Z,11.80
2023-05-19T23:03:47.929Z,11.70
2023-05-19T23:06:15.010Z,11.70
2023-05-19T23:08:42.080Z,11.60
2023-05-19T23:11:09.093Z,11.60
2023-05-19T23:13:36.127Z,11.50
2023-05-19T23:16:04.783Z,11.50
2023-05-19T23:18:31.773Z,11.50
2023-05-19T23:20:58.825Z,11.60
2023-05-19T23:23:27.138Z,11.60
2023-05-19T23:25:54.668Z,11.60
2023-05-19T23:28:21.750Z,11.60
2023-05-19T23:30:48.812Z,11.70
2023-05-19T23:33:15.972Z,11.70
2023-05-19T23:35:43.681Z,11.70
2023-05-19T23:38:11.118Z,11.70
2023-05-19T23:40:38.176Z,11.70
2023-05-19T23:43:05.270Z,11.60
2023-05-19T23:45:32.823Z,11.60
2023-05-19T23:48:00.132Z,11.50
2023-05-19T23:50:27.322Z,11.50
2023-05-19T23:52:54.353Z,11.50
2023-05-19T23:55:21.477Z,11.50
2023-05-19T23:57:48.536Z,11.50
